Time;durP1;ratioP1;P1;durP2;ratioP2;P2;SDS_P1;SDS_P2;PMS_P1;PMS_P2;Temp;Humidity;BMP_temperature;BMP_pressure;BME280_temperature;BME280_humidity;BME280_pressure;Samples;Min_cycle;Max_cycle;Signal;HPM_P1;HPM_P2
2022/11/20 00:00:38;;;;;;;24.55;14.18;;;-0.50;99.90;;;;;;6112580;23;20332;-89
2022/11/20 00:03:03;;;;;;;21.55;13.18;;;-0.40;99.90;;;;;;6157152;23;20498;-88
2022/11/20 00:05:32;;;;;;;21.42;13.75;;;-0.50;99.90;;;;;;6161337;23;20494;-88
2022/11/20 00:07:58;;;;;;;22.13;13.55;;;-0.40;99.90;;;;;;6137489;23;20086;-89
2022/11/20 00:10:24;;;;;;;20.88;12.60;;;-0.40;99.90;;;;;;6139551;23;20337;-88
2022/11/20 00:12:49;;;;;;;21.25;12.85;;;-0.50;99.90;;;;;;6138759;23;20017;-88
2022/11/20 00:15:15;;;;;;;21.75;12.82;;;-0.30;99.90;;;;;;6138260;23;20023;-88
2022/11/20 00:17:40;;;;;;;19.92;12.82;;;-0.30;99.90;;;;;;6163211;23;20018;-88
2022/11/20 00:20:06;;;;;;;21.50;12.85;;;-0.40;99.90;;;;;;6138646;23;20461;-89
2022/11/20 00:22:32;;;;;;;21.80;13.70;;;-0.30;99.90;;;;;;6137758;23;20014;-89
2022/11/20 00:24:58;;;;;;;21.65;13.10;;;-0.30;99.90;;;;;;6139367;23;20044;-88
2022/11/20 00:27:23;;;;;;;21.52;13.45;;;-0.30;99.90;;;;;;6137856;23;20517;-88
2022/11/20 00:29:49;;;;;;;20.13;12.70;;;-0.30;99.90;;;;;;6139107;23;20020;-89
2022/11/20 00:32:15;;;;;;;20.83;12.35;;;-0.40;99.90;;;;;;6139198;23;20024;-88
2022/11/20 00:34:43;;;;;;;24.58;13.05;;;-0.30;99.90;;;;;;6137872;23;20040;-89
2022/11/20 00:37:09;;;;;;;23.77;13.48;;;-0.30;99.90;;;;;;6137578;23;20030;-89
2022/11/20 00:39:34;;;;;;;20.58;12.57;;;-0.20;99.90;;;;;;6137947;23;20314;-90
2022/11/20 00:42:00;;;;;;;20.20;12.52;;;-0.20;99.90;;;;;;6162757;23;20028;-89
2022/11/20 00:44:26;;;;;;;19.60;12.77;;;-0.30;99.90;;;;;;6162349;23;20020;-88
2022/11/20 00:46:54;;;;;;;23.23;13.18;;;-0.20;99.90;;;;;;6138805;23;20382;-89
2022/11/20 00:49:19;;;;;;;22.52;12.98;;;-0.30;99.90;;;;;;6138382;23;20017;-89
2022/11/20 00:51:45;;;;;;;19.40;13.07;;;-0.20;99.90;;;;;;6137081;23;20031;-88
2022/11/20 00:54:11;;;;;;;20.55;12.10;;;-0.20;99.90;;;;;;6162235;23;20013;-89
2022/11/20 00:56:36;;;;;;;20.20;12.73;;;-0.30;99.90;;;;;;6163343;23;20475;-89
2022/11/20 00:59:02;;;;;;;22.08;13.13;;;-0.20;99.90;;;;;;6163209;23;20354;-89
2022/11/20 01:01:31;;;;;;;22.95;13.10;;;-0.10;99.90;;;;;;6138800;23;20503;-88
2022/11/20 01:03:59;;;;;;;21.90;13.27;;;-0.20;99.90;;;;;;6138504;23;20056;-88
2022/11/20 01:06:27;;;;;;;22.38;13.07;;;-0.20;99.90;;;;;;6138724;23;20013;-89
2022/11/20 01:08:55;;;;;;;21.20;12.43;;;-0.20;99.90;;;;;;6137711;23;20270;-89
2022/11/20 01:11:27;;;;;;;20.65;12.38;;;-0.10;99.90;;;;;;6137962;23;20020;-89
2022/11/20 01:13:54;;;;;;;19.65;12.52;;;-0.10;99.90;;;;;;6139012;23;20110;-89
2022/11/20 01:16:26;;;;;;;21.88;12.32;;;-0.10;99.90;;;;;;6138735;23;20454;-89
2022/11/20 01:18:55;;;;;;;19.40;12.30;;;-0.10;99.90;;;;;;6137981;23;20021;-89
2022/11/20 01:21:28;;;;;;;18.92;12.07;;;-0.10;99.90;;;;;;6138000;23;20028;-89
2022/11/20 01:23:54;;;;;;;20.45;12.45;;;-0.10;99.90;;;;;;6162492;23;20021;-88
2022/11/20 01:26:23;;;;;;;17.58;12.15;;;-0.20;99.90;;;;;;6138508;23;20077;-88
2022/11/20 01:28:50;;;;;;;23.70;12.93;;;-0.20;99.90;;;;;;6163888;23;20090;-89
2022/11/20 01:31:17;;;;;;;18.90;12.50;;;-0.10;99.90;;;;;;6138857;23;20005;-89
2022/11/20 01:33:44;;;;;;;18.38;11.88;;;-0.10;99.90;;;;;;6162470;23;20021;-89
2022/11/20 01:36:10;;;;;;;18.65;12.18;;;-0.10;99.90;;;;;;6136596;23;20099;-89
2022/11/20 01:38:36;;;;;;;19.73;12.82;;;-0.10;99.90;;;;;;6137473;23;20021;-88
2022/11/20 01:41:03;;;;;;;19.92;12.65;;;-0.10;99.90;;;;;;6162932;23;20023;-89
2022/11/20 01:43:32;;;;;;;18.85;11.85;;;-0.10;99.90;;;;;;6137376;23;20009;-89
2022/11/20 01:46:18;;;;;;;20.60;12.63;;;0.00;99.90;;;;;;6138074;23;20307;-89
2022/11/20 01:49:05;;;;;;;20.05;12.07;;;0.00;99.90;;;;;;6138112;23;20017;-89
2022/11/20 01:51:51;;;;;;;20.00;13.02;;;-0.10;99.90;;;;;;6137215;23;20027;-89
2022/11/20 01:54:22;;;;;;;19.52;12.05;;;-0.10;99.90;;;;;;6137697;23;20278;-88
2022/11/20 01:56:54;;;;;;;17.90;11.60;;;-0.10;99.90;;;;;;6137612;23;20017;-88
2022/11/20 01:59:22;;;;;;;21.08;12.15;;;-0.10;99.90;;;;;;6163678;23;20017;-89
2022/11/20 02:01:48;;;;;;;20.77;12.05;;;0.00;99.90;;;;;;6138069;23;20138;-89
2022/11/20 02:04:15;;;;;;;22.40;12.48;;;0.00;99.90;;;;;;6137523;23;20049;-89
2022/11/20 02:06:48;;;;;;;18.50;11.65;;;0.00;99.90;;;;;;6163303;23;20038;-89
2022/11/20 02:09:15;;;;;;;20.15;12.10;;;0.00;99.90;;;;;;6138542;23;20024;-88
2022/11/20 02:11:40;;;;;;;21.67;12.60;;;0.00;99.90;;;;;;6138527;23;20342;-90
2022/11/20 02:14:06;;;;;;;18.27;11.93;;;-0.10;99.90;;;;;;6138803;23;20017;-89
2022/11/20 02:16:44;;;;;;;20.08;12.23;;;-0.10;99.90;;;;;;6138511;22;20283;-89
2022/11/20 02:19:23;;;;;;;22.67;13.13;;;0.00;99.90;;;;;;6138147;23;20097;-89
2022/11/20 02:22:11;;;;;;;19.67;12.45;;;-0.10;99.90;;;;;;6138097;23;20017;-89
2022/11/20 02:24:37;;;;;;;21.77;13.23;;;-0.10;99.90;;;;;;6137316;23;20473;-89
2022/11/20 02:27:05;;;;;;;18.55;12.50;;;0.00;99.90;;;;;;6138104;23;20406;-89
2022/11/20 02:29:49;;;;;;;20.00;11.77;;;0.00;99.90;;;;;;6138854;23;20099;-88
2022/11/20 02:32:29;;;;;;;20.50;12.38;;;-0.10;99.90;;;;;;6161811;23;20130;-89
2022/11/20 02:34:56;;;;;;;21.55;12.82;;;0.00;99.90;;;;;;6137712;23;20145;-88
2022/11/20 02:37:23;;;;;;;20.83;12.30;;;0.00;99.90;;;;;;6136103;23;20420;-88
2022/11/20 02:39:50;;;;;;;19.92;12.27;;;0.00;99.90;;;;;;6138016;23;20021;-88
2022/11/20 02:42:16;;;;;;;19.63;12.20;;;0.00;99.90;;;;;;6137287;23;20063;-89
2022/11/20 02:44:42;;;;;;;21.20;13.07;;;0.00;99.90;;;;;;6137805;23;20385;-89
2022/11/20 02:47:08;;;;;;;19.63;12.27;;;0.00;99.90;;;;;;6137854;23;20043;-89
2022/11/20 02:49:34;;;;;;;19.25;12.10;;;0.00;99.90;;;;;;6162554;23;20021;-89
2022/11/20 02:52:00;;;;;;;20.23;12.15;;;0.00;99.90;;;;;;6162846;23;20446;-89
2022/11/20 02:54:28;;;;;;;21.42;12.35;;;0.10;99.90;;;;;;6136931;23;20048;-89
2022/11/20 02:56:54;;;;;;;19.83;12.20;;;0.10;99.90;;;;;;6137749;23;20017;-89
2022/11/20 02:59:20;;;;;;;19.00;11.95;;;0.10;99.90;;;;;;6138426;23;20013;-90
2022/11/20 03:01:48;;;;;;;19.35;11.65;;;0.10;99.90;;;;;;6163361;23;20478;-89
2022/11/20 03:04:14;;;;;;;21.50;12.07;;;0.20;99.90;;;;;;6162280;23;20105;-89
2022/11/20 03:06:39;;;;;;;19.52;12.32;;;0.20;99.90;;;;;;6162871;23;20020;-89
2022/11/20 03:09:08;;;;;;;19.70;12.35;;;0.20;99.90;;;;;;6137199;23;20009;-87
2022/11/20 03:11:33;;;;;;;19.33;12.60;;;0.20;99.90;;;;;;6137543;23;20455;-89
2022/11/20 03:14:03;;;;;;;21.15;12.02;;;0.10;99.90;;;;;;6138221;23;20041;-89
2022/11/20 03:16:30;;;;;;;18.85;12.52;;;0.20;99.90;;;;;;6162664;23;20009;-89
2022/11/20 03:18:56;;;;;;;20.75;13.23;;;0.20;99.90;;;;;;6137857;23;20116;-89
2022/11/20 03:21:22;;;;;;;20.48;12.52;;;0.20;99.90;;;;;;6136383;23;20096;-89
2022/11/20 03:23:47;;;;;;;20.00;12.15;;;0.30;99.90;;;;;;6162022;23;20017;-89
2022/11/20 03:26:16;;;;;;;21.58;12.45;;;0.30;99.90;;;;;;6137792;23;20131;-89
2022/11/20 03:28:46;;;;;;;18.95;11.73;;;0.30;99.90;;;;;;6138182;23;20461;-89
2022/11/20 03:31:14;;;;;;;18.15;12.20;;;0.30;99.90;;;;;;6138291;23;20112;-89
2022/11/20 03:33:41;;;;;;;18.20;11.45;;;0.30;99.90;;;;;;6138037;23;20024;-90
2022/11/20 03:36:10;;;;;;;22.63;12.50;;;0.30;99.90;;;;;;6160505;23;20021;-89
2022/11/20 03:38:37;;;;;;;18.08;11.95;;;0.30;99.90;;;;;;6136074;23;20104;-89
2022/11/20 03:41:05;;;;;;;19.35;11.93;;;0.30;99.90;;;;;;6138412;23;20098;-89
2022/11/20 03:43:31;;;;;;;18.65;12.05;;;0.30;99.90;;;;;;6139042;23;20331;-89
2022/11/20 03:45:57;;;;;;;17.27;11.27;;;0.40;99.90;;;;;;6138880;23;20266;-89
2022/11/20 03:48:23;;;;;;;18.75;12.40;;;0.30;99.90;;;;;;6163148;23;20349;-89
2022/11/20 03:50:49;;;;;;;18.17;11.77;;;0.30;99.90;;;;;;6138935;23;20013;-89
2022/11/20 03:53:15;;;;;;;18.10;11.77;;;0.30;99.90;;;;;;6138905;23;20096;-89
2022/11/20 03:55:41;;;;;;;18.67;11.85;;;0.40;99.90;;;;;;6139933;23;20432;-90
2022/11/20 03:58:07;;;;;;;21.20;12.07;;;0.30;99.90;;;;;;6139842;23;20092;-89
2022/11/20 04:00:36;;;;;;;17.23;11.00;;;0.30;99.90;;;;;;6140300;23;20020;-89
2022/11/20 04:03:03;;;;;;;18.20;11.77;;;0.40;99.90;;;;;;6139655;23;20017;-89
2022/11/20 04:05:29;;;;;;;18.60;11.75;;;0.40;99.90;;;;;;6139411;23;20097;-89
2022/11/20 04:07:54;;;;;;;18.27;12.82;;;0.40;99.90;;;;;;6138665;23;20339;-89
2022/11/20 04:10:20;;;;;;;19.60;12.15;;;0.40;99.90;;;;;;6139562;23;20009;-89
2022/11/20 04:12:46;;;;;;;18.85;11.15;;;0.40;99.90;;;;;;6163608;23;20021;-89
2022/11/20 04:15:11;;;;;;;18.98;11.95;;;0.40;99.90;;;;;;6139539;23;20137;-90
2022/11/20 04:17:39;;;;;;;17.95;11.95;;;0.40;99.90;;;;;;6137987;23;20017;-89
2022/11/20 04:20:08;;;;;;;19.13;12.00;;;0.40;99.90;;;;;;6139358;23;20228;-89
2022/11/20 04:22:34;;;;;;;17.85;12.05;;;0.30;99.90;;;;;;6161878;23;20021;-89
2022/11/20 04:25:00;;;;;;;17.55;11.65;;;0.40;99.90;;;;;;6138295;23;20102;-89
2022/11/20 04:27:25;;;;;;;18.98;11.90;;;0.40;99.90;;;;;;6137852;23;20020;-89
2022/11/20 04:29:51;;;;;;;18.98;12.07;;;0.40;99.90;;;;;;6139039;23;20442;-89
2022/11/20 04:32:19;;;;;;;18.52;11.82;;;0.50;99.90;;;;;;6162698;22;20021;-89
2022/11/20 04:34:45;;;;;;;19.73;11.60;;;0.50;99.90;;;;;;6138696;23;20270;-89
2022/11/20 04:37:11;;;;;;;17.60;11.02;;;0.50;99.90;;;;;;6162701;22;20020;-90
2022/11/20 04:39:36;;;;;;;19.77;12.55;;;0.50;99.90;;;;;;6138572;23;20017;-89
2022/11/20 04:44:46;;;;;;;17.05;11.30;;;0.50;99.90;;;;;;6163952;23;20156;-88
2022/11/20 04:47:12;;;;;;;18.20;11.40;;;0.50;99.90;;;;;;6164407;23;20013;-89
2022/11/20 04:49:40;;;;;;;15.35;10.48;;;0.40;99.90;;;;;;6137834;23;20472;-89
2022/11/20 04:52:06;;;;;;;17.02;10.95;;;0.50;99.90;;;;;;6138428;23;20411;-89
2022/11/20 04:54:31;;;;;;;18.67;11.43;;;0.50;99.90;;;;;;6138157;23;20044;-90
2022/11/20 04:56:57;;;;;;;15.50;10.57;;;0.50;99.90;;;;;;6138902;23;20275;-89
2022/11/20 04:59:22;;;;;;;17.48;11.27;;;0.50;99.90;;;;;;6140054;23;20017;-89
2022/11/20 05:01:48;;;;;;;15.80;10.15;;;0.50;99.90;;;;;;6138741;23;20029;-89
2022/11/20 05:04:14;;;;;;;17.33;10.73;;;0.50;99.90;;;;;;6163582;23;20512;-89
2022/11/20 05:06:39;;;;;;;16.80;10.50;;;0.50;99.90;;;;;;6138582;23;20013;-89
2022/11/20 05:09:08;;;;;;;14.73;9.70;;;0.50;99.90;;;;;;6138244;23;20013;-89
2022/11/20 05:11:34;;;;;;;17.88;11.23;;;0.50;99.90;;;;;;6139863;23;20052;-89
2022/11/20 05:13:59;;;;;;;15.93;10.30;;;0.50;99.90;;;;;;6140291;23;20017;-89
2022/11/20 05:16:26;;;;;;;17.23;11.40;;;0.50;99.90;;;;;;6139936;23;20016;-89
2022/11/20 05:18:53;;;;;;;16.65;11.23;;;0.50;99.90;;;;;;6139260;23;20024;-90
2022/11/20 05:21:18;;;;;;;16.98;10.82;;;0.50;99.90;;;;;;6138715;23;20418;-88
2022/11/20 05:23:45;;;;;;;18.95;11.60;;;0.50;99.90;;;;;;6163015;23;20017;-89
2022/11/20 05:26:17;;;;;;;16.38;10.88;;;0.50;99.90;;;;;;6164152;23;20017;-88
2022/11/20 05:28:43;;;;;;;16.75;10.88;;;0.50;99.90;;;;;;6139666;23;20017;-89
2022/11/20 05:31:15;;;;;;;16.33;10.52;;;0.50;99.90;;;;;;6139754;23;20339;-89
2022/11/20 05:33:42;;;;;;;15.57;9.95;;;0.50;99.90;;;;;;6139640;23;20417;-88
2022/11/20 05:36:08;;;;;;;18.00;10.88;;;0.50;99.90;;;;;;6138314;23;20052;-89
2022/11/20 05:38:34;;;;;;;16.60;10.73;;;0.50;99.90;;;;;;6138105;23;20021;-89
2022/11/20 05:41:07;;;;;;;17.00;10.88;;;0.50;99.90;;;;;;6138745;23;20040;-89
2022/11/20 05:43:35;;;;;;;18.10;11.90;;;0.50;99.90;;;;;;6139381;23;20017;-89
2022/11/20 05:46:02;;;;;;;16.55;10.50;;;0.50;99.90;;;;;;6138643;23;20059;-89
2022/11/20 05:48:27;;;;;;;18.58;11.40;;;0.50;99.90;;;;;;6137805;23;20112;-90
2022/11/20 05:50:53;;;;;;;18.02;11.73;;;0.50;99.90;;;;;;6138294;23;20135;-89
2022/11/20 05:53:19;;;;;;;16.55;11.13;;;0.50;99.90;;;;;;6163231;22;20131;-89
2022/11/20 05:55:55;;;;;;;16.48;11.00;;;0.60;99.90;;;;;;6163834;23;20013;-89
2022/11/20 05:58:21;;;;;;;16.30;10.88;;;0.60;99.90;;;;;;6139575;23;20021;-89
2022/11/20 06:00:46;;;;;;;14.63;10.18;;;0.60;99.90;;;;;;6163876;23;20028;-90
2022/11/20 06:03:12;;;;;;;18.00;11.63;;;0.60;99.90;;;;;;6139159;23;20025;-89
2022/11/20 06:05:37;;;;;;;16.65;10.15;;;0.60;99.90;;;;;;6137687;23;20105;-89
2022/11/20 06:08:03;;;;;;;14.80;9.90;;;0.60;99.90;;;;;;6138844;23;20017;-90
2022/11/20 06:10:29;;;;;;;17.35;10.77;;;0.60;99.90;;;;;;6164070;23;20402;-90
2022/11/20 06:12:57;;;;;;;15.57;10.20;;;0.60;99.90;;;;;;6138615;23;20068;-89
2022/11/20 06:15:23;;;;;;;15.40;9.90;;;0.60;99.90;;;;;;6139618;23;20024;-89
2022/11/20 06:17:52;;;;;;;15.05;10.60;;;0.60;99.90;;;;;;6138049;23;20020;-89
2022/11/20 06:20:18;;;;;;;15.30;10.10;;;0.60;99.90;;;;;;6137974;23;20013;-89
2022/11/20 06:22:44;;;;;;;14.60;10.05;;;0.60;99.90;;;;;;6138241;23;20350;-88
2022/11/20 06:25:09;;;;;;;16.42;10.52;;;0.60;99.90;;;;;;6138090;23;20607;-89
2022/11/20 06:27:35;;;;;;;14.82;9.77;;;0.60;99.90;;;;;;6138670;23;20036;-89
2022/11/20 06:30:00;;;;;;;14.38;10.15;;;0.60;99.90;;;;;;6138642;23;20017;-90
2022/11/20 06:32:26;;;;;;;14.63;9.82;;;0.60;99.90;;;;;;6162665;23;20024;-89
2022/11/20 06:34:52;;;;;;;15.63;10.05;;;0.60;99.90;;;;;;6139023;23;20053;-89
2022/11/20 06:37:17;;;;;;;15.07;10.35;;;0.60;99.90;;;;;;6137281;23;20131;-89
2022/11/20 06:39:43;;;;;;;14.95;9.90;;;0.60;99.90;;;;;;6163600;23;20511;-90
2022/11/20 06:42:11;;;;;;;14.73;9.82;;;0.60;99.90;;;;;;6137199;23;20090;-90
2022/11/20 06:44:37;;;;;;;14.65;8.80;;;0.60;99.90;;;;;;6163519;23;20044;-89
2022/11/20 06:47:03;;;;;;;14.27;9.63;;;0.60;99.90;;;;;;6139052;23;20575;-88
2022/11/20 06:49:28;;;;;;;15.40;10.15;;;0.60;99.90;;;;;;6137992;23;20024;-89
2022/11/20 06:51:54;;;;;;;15.20;9.55;;;0.60;99.90;;;;;;6163604;23;20112;-89
2022/11/20 06:54:20;;;;;;;16.15;10.00;;;0.60;99.90;;;;;;6163129;23;20033;-90
2022/11/20 06:56:51;;;;;;;15.00;9.70;;;0.70;99.90;;;;;;6139162;23;20037;-89
2022/11/20 06:59:16;;;;;;;16.00;9.85;;;0.60;99.90;;;;;;6139267;23;20005;-90
2022/11/20 07:01:42;;;;;;;16.42;9.60;;;0.70;99.90;;;;;;6138420;23;20455;-90
2022/11/20 07:04:08;;;;;;;15.52;10.10;;;0.70;99.90;;;;;;6138461;23;20025;-89
2022/11/20 07:06:36;;;;;;;15.30;10.43;;;0.70;99.90;;;;;;6114034;23;20028;-89
2022/11/20 07:09:01;;;;;;;15.57;10.02;;;0.60;99.90;;;;;;6137483;23;20057;-89
2022/11/20 07:11:27;;;;;;;15.13;9.80;;;0.70;99.90;;;;;;6138701;23;20032;-89
2022/11/20 07:13:56;;;;;;;16.60;10.88;;;0.70;99.90;;;;;;6138109;23;20017;-90
2022/11/20 07:16:21;;;;;;;15.13;10.15;;;0.70;99.90;;;;;;6139871;23;20023;-89
2022/11/20 07:18:47;;;;;;;16.70;10.45;;;0.70;99.90;;;;;;6140140;23;20042;-89
2022/11/20 07:21:13;;;;;;;16.20;10.48;;;0.80;99.90;;;;;;6138464;23;20214;-89
2022/11/20 07:23:39;;;;;;;15.15;10.15;;;0.80;99.90;;;;;;6139407;23;20029;-90
2022/11/20 07:26:11;;;;;;;15.90;10.13;;;0.70;99.90;;;;;;6139816;23;20047;-89
2022/11/20 07:28:38;;;;;;;16.88;10.02;;;0.80;99.90;;;;;;6140676;23;20476;-89
2022/11/20 07:31:04;;;;;;;15.27;10.30;;;0.80;99.90;;;;;;6140811;23;20013;-88
2022/11/20 07:33:30;;;;;;;16.45;10.20;;;0.80;99.90;;;;;;6140469;23;20021;-90
2022/11/20 07:35:57;;;;;;;14.70;9.20;;;0.90;99.90;;;;;;6164967;23;20024;-89
2022/11/20 07:38:23;;;;;;;14.48;9.90;;;0.90;99.90;;;;;;6140179;23;20023;-89
2022/11/20 07:40:54;;;;;;;13.95;9.27;;;0.90;99.90;;;;;;6140086;23;20017;-91
2022/11/20 07:43:23;;;;;;;14.73;9.07;;;0.90;99.90;;;;;;6139871;23;20021;-90
2022/11/20 07:45:48;;;;;;;13.95;9.77;;;0.90;99.90;;;;;;6140196;23;20036;-90
2022/11/20 07:48:14;;;;;;;14.55;9.98;;;1.00;99.90;;;;;;6139874;23;20031;-89
2022/11/20 07:50:40;;;;;;;13.48;9.20;;;1.00;99.90;;;;;;6138625;23;20346;-90
2022/11/20 07:53:08;;;;;;;16.92;10.40;;;1.00;99.90;;;;;;6139149;23;20100;-89
2022/11/20 07:55:34;;;;;;;15.02;9.20;;;1.00;99.90;;;;;;6140119;23;20183;-89
2022/11/20 07:58:00;;;;;;;14.63;9.40;;;1.00;99.90;;;;;;6164713;23;20156;-90
2022/11/20 08:00:26;;;;;;;14.75;9.48;;;1.00;99.90;;;;;;6164785;23;20017;-90
2022/11/20 08:02:52;;;;;;;18.42;11.05;;;1.00;99.90;;;;;;6139605;23;20020;-90
2022/11/20 08:05:18;;;;;;;16.60;10.10;;;1.10;99.90;;;;;;6164218;23;20017;-89
2022/11/20 08:07:44;;;;;;;16.08;9.68;;;1.10;99.90;;;;;;6139031;23;20021;-89
2022/11/20 08:10:14;;;;;;;14.93;9.70;;;1.10;99.90;;;;;;6138923;23;20063;-90
2022/11/20 08:15:36;;;;;;;13.98;8.93;;;1.10;99.90;;;;;;6164966;23;20294;-89
2022/11/20 08:18:07;;;;;;;13.52;9.23;;;1.10;99.90;;;;;;6138855;23;20017;-89
2022/11/20 08:20:41;;;;;;;13.43;9.35;;;1.10;99.90;;;;;;6139439;23;20063;-89
2022/11/20 08:23:08;;;;;;;13.87;8.90;;;1.10;99.90;;;;;;6164680;23;20017;-90
2022/11/20 08:25:35;;;;;;;12.82;9.15;;;1.10;99.90;;;;;;6140014;23;20017;-89
2022/11/20 08:28:05;;;;;;;13.18;9.10;;;1.10;99.90;;;;;;6139902;23;20323;-89
2022/11/20 08:30:30;;;;;;;13.60;9.10;;;1.10;99.90;;;;;;6141311;23;20023;-90
2022/11/20 08:33:05;;;;;;;16.20;9.35;;;1.10;99.90;;;;;;6139948;23;20474;-91
2022/11/20 08:35:35;;;;;;;13.88;9.57;;;1.10;99.90;;;;;;6139902;23;20017;-90
2022/11/20 08:38:02;;;;;;;13.13;8.60;;;1.10;99.90;;;;;;6165293;23;20134;-90
2022/11/20 08:40:28;;;;;;;15.13;8.85;;;1.20;99.90;;;;;;6165882;23;20017;-89
2022/11/20 08:42:54;;;;;;;12.98;8.30;;;1.10;99.90;;;;;;6140467;23;20021;-89
2022/11/20 08:45:20;;;;;;;13.02;8.02;;;1.10;99.90;;;;;;6142090;23;20272;-89
2022/11/20 08:47:46;;;;;;;11.18;7.78;;;1.20;99.90;;;;;;6139914;23;20035;-90
2022/11/20 08:50:14;;;;;;;13.07;8.35;;;1.20;99.90;;;;;;6166366;23;20013;-90
2022/11/20 08:52:39;;;;;;;12.48;8.35;;;1.20;99.90;;;;;;6138359;23;20032;-89
2022/11/20 08:55:06;;;;;;;10.77;7.57;;;1.20;99.90;;;;;;6140229;23;20036;-89
2022/11/20 08:57:35;;;;;;;13.63;8.10;;;1.20;99.90;;;;;;6164397;23;20548;-88
2022/11/20 09:00:06;;;;;;;12.60;7.68;;;1.20;99.90;;;;;;6141064;23;20223;-89
2022/11/20 09:02:32;;;;;;;13.05;8.23;;;1.10;99.90;;;;;;6139183;23;20031;-89
2022/11/20 09:04:58;;;;;;;11.93;8.55;;;1.20;99.90;;;;;;6139684;23;20017;-89
2022/11/20 09:07:23;;;;;;;12.73;8.00;;;1.10;99.90;;;;;;6139298;23;20024;-89
2022/11/20 09:09:49;;;;;;;11.13;7.82;;;1.20;99.90;;;;;;6139391;23;20009;-89
2022/11/20 09:12:15;;;;;;;11.10;8.05;;;1.10;99.90;;;;;;6138081;23;20016;-89
2022/11/20 09:14:43;;;;;;;15.55;8.98;;;1.20;99.90;;;;;;6138473;23;20052;-88
2022/11/20 09:17:13;;;;;;;12.02;8.25;;;1.30;99.90;;;;;;6162454;23;20996;-89
2022/11/20 09:19:39;;;;;;;10.88;7.70;;;1.20;99.90;;;;;;6139505;23;20020;-89
2022/11/20 09:22:05;;;;;;;14.25;9.50;;;1.30;99.90;;;;;;6137454;23;20028;-89
2022/11/20 09:24:30;;;;;;;12.75;8.82;;;1.40;99.90;;;;;;6137679;23;20332;-89
2022/11/20 09:27:01;;;;;;;13.55;8.90;;;1.30;99.90;;;;;;6137712;23;20048;-89
2022/11/20 09:29:27;;;;;;;13.00;8.63;;;1.40;99.90;;;;;;6137959;23;20505;-89
2022/11/20 09:31:53;;;;;;;14.00;8.73;;;1.40;99.90;;;;;;6139282;23;20040;-90
2022/11/20 09:34:18;;;;;;;14.75;8.75;;;1.50;99.90;;;;;;6163740;23;20020;-89
2022/11/20 09:36:44;;;;;;;12.88;9.20;;;1.50;99.90;;;;;;6139327;23;20093;-87
2022/11/20 09:39:10;;;;;;;13.15;9.23;;;1.60;99.90;;;;;;6139114;23;20024;-88
2022/11/20 09:41:56;;;;;;;13.38;8.85;;;1.70;99.90;;;;;;6137558;23;20013;-89
2022/11/20 09:44:59;;;;;;;11.70;8.55;;;1.80;99.90;;;;;;6139022;23;20021;-89
2022/11/20 09:47:59;;;;;;;12.80;8.65;;;1.80;99.90;;;;;;6138159;23;20102;-89
2022/11/20 09:50:56;;;;;;;12.68;8.55;;;1.90;99.90;;;;;;6139417;23;20017;-89
2022/11/20 09:53:38;;;;;;;13.25;8.30;;;1.90;99.90;;;;;;6137647;23;20036;-89
2022/11/20 09:56:04;;;;;;;13.30;9.07;;;2.00;99.90;;;;;;6138411;23;20109;-88
2022/11/20 09:58:47;;;;;;;12.95;8.45;;;2.00;99.90;;;;;;6139062;23;20032;-88
2022/11/20 10:01:17;;;;;;;11.57;7.82;;;2.00;99.90;;;;;;6128017;23;20061;-89
2022/11/20 10:04:03;;;;;;;11.57;7.57;;;2.00;99.90;;;;;;6089308;23;20537;-87
2022/11/20 10:06:30;;;;;;;12.88;8.50;;;2.10;99.90;;;;;;6137196;23;20246;-88
2022/11/20 10:09:06;;;;;;;14.25;8.40;;;2.10;99.90;;;;;;6162270;23;20016;-89
2022/11/20 10:11:32;;;;;;;12.20;8.30;;;2.10;99.90;;;;;;6137467;23;20047;-88
2022/11/20 10:14:06;;;;;;;13.68;8.23;;;2.20;99.90;;;;;;6137211;23;20020;-89
2022/11/20 10:17:01;;;;;;;10.82;8.02;;;2.00;99.90;;;;;;6138362;23;20021;-89
2022/11/20 10:19:38;;;;;;;11.75;8.75;;;2.20;99.90;;;;;;6136963;23;20017;-88
2022/11/20 10:22:22;;;;;;;10.60;7.50;;;2.30;99.90;;;;;;6137522;23;20358;-88
2022/11/20 10:24:48;;;;;;;10.15;7.53;;;2.40;99.90;;;;;;6136901;23;20020;-88
2022/11/20 10:27:35;;;;;;;11.70;7.70;;;2.50;1.00;;;;;;6161268;23;20429;-88
2022/11/20 10:30:14;;;;;;;11.15;7.72;;;2.60;9.70;;;;;;6138766;23;20052;-87
2022/11/20 10:32:46;;;;;;;12.10;8.05;;;2.80;99.90;;;;;;6138642;23;20082;-89
2022/11/20 10:35:18;;;;;;;11.50;7.35;;;2.80;99.90;;;;;;6138644;23;20032;-87
2022/11/20 10:37:47;;;;;;;11.50;7.95;;;2.90;99.90;;;;;;6161957;23;20039;-89
2022/11/20 10:40:24;;;;;;;11.73;8.15;;;2.90;1.00;;;;;;6138177;23;20009;-88
2022/11/20 10:42:59;;;;;;;11.90;7.97;;;2.90;1.00;;;;;;6137381;23;20125;-88
2022/11/20 10:45:25;;;;;;;11.25;7.97;;;3.00;79.10;;;;;;6138834;23;20017;-88
2022/11/20 10:47:56;;;;;;;11.73;7.25;;;3.10;60.80;;;;;;6162817;23;20063;-89
2022/11/20 10:50:23;;;;;;;10.77;7.88;;;2.90;1.00;;;;;;6137973;23;20477;-88
2022/11/20 10:53:39;;;;;;;12.40;7.95;;;3.00;1.00;;;;;;6161484;23;20555;-90
2022/11/20 10:56:27;;;;;;;12.02;7.88;;;3.20;26.10;;;;;;6175296;23;20052;-89
2022/11/20 10:59:08;;;;;;;10.13;7.90;;;3.10;1.00;;;;;;6186906;23;20017;-89
2022/11/20 11:01:41;;;;;;;11.13;7.72;;;3.00;99.90;;;;;;6162329;23;20091;-88
2022/11/20 11:04:34;;;;;;;9.98;7.57;;;3.00;99.90;;;;;;6138958;23;20070;-88
2022/11/20 11:07:17;;;;;;;9.60;7.05;;;2.90;99.90;;;;;;6138238;23;20295;-88
2022/11/20 11:09:49;;;;;;;10.77;7.25;;;3.00;99.90;;;;;;6137631;23;20062;-88
2022/11/20 11:12:15;;;;;;;10.63;7.35;;;3.00;1.00;;;;;;6137848;23;20476;-88
2022/11/20 11:14:49;;;;;;;12.73;8.10;;;2.90;99.90;;;;;;6137679;23;20013;-89
2022/11/20 11:17:29;;;;;;;11.13;8.20;;;2.90;99.90;;;;;;6136737;23;20175;-89
2022/11/20 11:20:16;;;;;;;11.73;8.13;;;2.90;99.90;;;;;;6138711;23;20017;-88
2022/11/20 11:22:54;;;;;;;12.98;8.15;;;3.00;99.90;;;;;;6136105;23;20066;-88
2022/11/20 11:25:29;;;;;;;11.93;8.38;;;2.90;99.90;;;;;;6137419;23;20009;-88
2022/11/20 11:27:59;;;;;;;;;;;3.00;99.90;;;;;;6137900;23;20013;-89
2022/11/20 11:30:29;;;;;;;9.82;7.50;;;3.00;99.90;;;;;;6137753;23;19916;-89
2022/11/20 11:33:18;;;;;;;11.52;8.25;;;3.10;99.90;;;;;;6137715;23;20245;-88
2022/11/20 11:35:50;;;;;;;14.55;8.77;;;3.10;99.90;;;;;;6136959;23;20100;-87
2022/11/20 11:38:36;;;;;;;10.73;7.47;;;3.20;99.90;;;;;;6137712;23;20528;-88
2022/11/20 11:41:04;;;;;;;9.50;7.15;;;3.30;99.90;;;;;;6137687;23;20430;-88
2022/11/20 11:46:24;;;;;;;10.25;7.55;;;3.40;67.60;;;;;;6163376;23;20430;-88
2022/11/20 11:49:16;;;;;;;9.45;7.07;;;3.50;27.10;;;;;;6137634;23;20108;-88
2022/11/20 11:51:56;;;;;;;11.07;7.25;;;3.40;1.00;;;;;;6138094;23;20013;-89
2022/11/20 11:54:38;;;;;;;10.15;7.30;;;3.60;43.90;;;;;;6136332;23;20020;-88
2022/11/20 11:57:26;;;;;;;8.15;6.15;;;3.50;99.90;;;;;;6136707;23;20414;-88
2022/11/20 12:00:00;;;;;;;10.50;6.50;;;3.70;99.90;;;;;;6139111;23;20059;-88
2022/11/20 12:02:48;;;;;;;8.95;6.28;;;3.80;99.90;;;;;;6137093;23;20107;-89
2022/11/20 12:05:36;;;;;;;8.10;5.90;;;3.80;1.00;;;;;;6139218;23;20040;-88
2022/11/20 12:08:20;;;;;;;9.35;5.30;;;3.80;83.20;;;;;;6163610;23;20049;-88
2022/11/20 12:10:50;;;;;;;6.68;4.88;;;3.80;99.90;;;;;;6138658;23;20019;-88
2022/11/20 12:13:39;;;;;;;6.57;4.72;;;4.00;99.90;;;;;;6139461;23;20017;-88
2022/11/20 12:16:05;;;;;;;6.78;4.95;;;4.00;99.90;;;;;;6165032;22;20136;-89
2022/11/20 12:18:31;;;;;;;6.78;4.93;;;4.20;99.90;;;;;;6139823;23;20017;-88
2022/11/20 12:21:19;;;;;;;7.85;5.10;;;4.40;99.90;;;;;;6139674;23;20138;-90
2022/11/20 12:24:23;;;;;;;7.30;5.13;;;4.40;99.90;;;;;;6139231;23;20463;-89
2022/11/20 12:27:14;;;;;;;7.85;5.60;;;4.40;31.60;;;;;;6139546;23;20024;-89
2022/11/20 12:30:01;;;;;;;7.18;5.63;;;4.60;99.90;;;;;;6139193;23;20309;-89
2022/11/20 12:33:12;;;;;;;7.43;5.65;;;4.60;57.40;;;;;;6164565;23;20174;-89
2022/11/20 12:36:06;;;;;;;7.82;5.90;;;4.70;1.00;;;;;;6164244;23;20093;-89
2022/11/20 12:39:00;;;;;;;7.80;6.35;;;4.70;1.00;;;;;;6139468;23;20052;-90
2022/11/20 12:45:10;;;;;;;13.23;8.13;;;4.70;1.00;;;;;;6165918;23;20029;-90
2022/11/20 12:47:36;;;;;;;12.63;6.43;;;4.70;99.90;;;;;;6139808;23;20021;-90
2022/11/20 12:50:30;;;;;;;7.50;5.45;;;4.60;99.90;;;;;;6139875;23;20024;-90
2022/11/20 12:53:04;;;;;;;8.70;6.28;;;4.20;1.00;;;;;;6139728;23;20046;-89
2022/11/20 12:55:41;;;;;;;9.45;6.78;;;4.40;99.90;;;;;;6141139;23;20281;-90
2022/11/20 12:58:25;;;;;;;9.50;5.63;;;4.40;99.90;;;;;;6140190;23;20012;-90
2022/11/20 13:01:39;;;;;;;8.32;6.00;;;4.50;99.90;;;;;;6139933;22;20436;-91
2022/11/20 13:04:24;;;;;;;8.57;6.03;;;4.50;1.00;;;;;;6140143;23;20093;-89
2022/11/20 13:06:50;;;;;;;10.40;6.82;;;4.70;99.90;;;;;;6139423;23;20069;-90
2022/11/20 13:09:22;;;;;;;8.93;6.32;;;4.80;99.90;;;;;;6139599;22;20051;-88